LGRX/GPA METAR and TAF weather

Enter ICAO airport designator
Station Type Date Time Source
LGRX METAR 2019/12/09 21:50 UTC NOAA

LGRX 092150Z 00000KT 9999 FEW020 BKN080 11/11 Q1010


Station Type Date Time Source
LGRX Decoded METAR 2019/12/09 21:50 UTC NOAA

Araxos Airport , Greece (LGRX) 38-09N 021-25E 12M
Dec 09, 2019 - 04:50 PM EST / 2019.12.09 2150 UTC
Wind: Calm:0
Visibility: greater than 7 mile(s):0
Sky conditions: mostly cloudy
Temperature: 51 F (11 C)
Dew Point: 51 F (11 C)
Relative Humidity: 100%
Pressure (altimeter): 29.83 in. Hg (1010 hPa)
ob: LGRX 092150Z 00000KT 9999 FEW020 BKN080 11/11 Q1010
cycle: 22

Station Type Date Time Source
LGRX TAF 2019/11/28 15:39 UTC NOAA

TAF TAF LGRX 281400Z 2815/2903 22012KT 9999 SCT020 BKN080 PROB40
TEMPO 2815/2903 6000 RA PROB30
TEMPO 2822/2903 3000 TSRA FEW018CB SCT020 BKN080

Example: see airport list